Time;durP1;ratioP1;P1;durP2;ratioP2;P2;SDS_P1;SDS_P2;PMS_P1;PMS_P2;Temp;Humidity;BMP_temperature;BMP_pressure;BME280_temperature;BME280_humidity;BME280_pressure;Samples;Min_cycle;Max_cycle;Signal;HPM_P1;HPM_P2
2022/01/18 07:00:31;;;;;;;37.17;16.48;;;;;;;;;;5728985;23;20970;-85
2022/01/18 07:02:57;;;;;;;34.00;15.93;;;;;;;;;;4839385;29;20509;-85
2022/01/18 07:05:25;;;;;;;38.50;16.88;;;;;;;;;;4838569;29;20053;-83
2022/01/18 07:07:52;;;;;;;38.53;16.80;;;;;;;;;;4855582;29;20046;-86
2022/01/18 07:10:20;;;;;;;40.45;16.45;;;;;;;;;;4840937;29;20060;-84
2022/01/18 07:12:47;;;;;;;30.20;15.23;;;;;;;;;;4859589;29;20566;-85
2022/01/18 07:15:14;;;;;;;32.30;16.55;;;;;;;;;;4856300;29;20506;-85
2022/01/18 07:17:40;;;;;;;36.20;16.75;;;;;;;;;;4864100;29;20053;-85
2022/01/18 07:20:08;;;;;;;33.58;16.25;;;;;;;;;;4840738;29;20155;-85
2022/01/18 07:22:35;;;;;;;34.90;16.73;;;;;;;;;;4848725;29;20045;-87
2022/01/18 07:25:10;;;;;;;35.63;16.77;;;;;;;;;;4855419;29;20050;-85
2022/01/18 07:27:37;;;;;;;34.28;16.35;;;;;;;;;;4856427;29;20495;-84
2022/01/18 07:30:04;;;;;;;29.92;16.17;;;;;;;;;;4855381;29;20053;-84
2022/01/18 07:32:31;;;;;;;33.88;15.95;;;;;;;;;;4854571;29;20105;-84
2022/01/18 07:34:58;;;;;;;35.60;16.15;;;;;;;;;;4854895;29;20053;-84
2022/01/18 07:37:24;;;;;;;35.10;15.85;;;;;;;;;;4855139;29;20049;-84
2022/01/18 07:39:52;;;;;;;33.42;16.10;;;;;;;;;;4839792;29;20065;-83
2022/01/18 07:42:21;;;;;;;33.85;16.02;;;;;;;;;;4854050;29;20117;-84
2022/01/18 07:44:48;;;;;;;32.45;16.75;;;;;;;;;;4854044;29;20076;-85
2022/01/18 07:47:14;;;;;;;34.72;16.23;;;;;;;;;;4833167;29;20046;-84
2022/01/18 07:49:44;;;;;;;30.88;15.35;;;;;;;;;;4838868;29;20126;-85
2022/01/18 07:52:10;;;;;;;34.50;16.33;;;;;;;;;;4855320;29;20097;-84
2022/01/18 07:54:37;;;;;;;37.90;17.17;;;;;;;;;;4849632;29;20049;-85
2022/01/18 07:57:11;;;;;;;31.02;15.00;;;;;;;;;;4837781;29;20144;-85
2022/01/18 07:59:38;;;;;;;32.88;15.35;;;;;;;;;;4854232;29;20140;-85
2022/01/18 08:02:05;;;;;;;32.60;16.30;;;;;;;;;;4853030;29;20042;-83
2022/01/18 08:04:32;;;;;;;35.00;15.90;;;;;;;;;;4854782;29;20060;-85
2022/01/18 08:06:58;;;;;;;35.78;17.20;;;;;;;;;;4856817;29;20057;-85
2022/01/18 08:09:25;;;;;;;31.40;16.45;;;;;;;;;;4853265;29;20125;-84
2022/01/18 08:11:52;;;;;;;34.58;16.48;;;;;;;;;;4837144;29;20402;-84
2022/01/18 08:14:19;;;;;;;37.78;16.98;;;;;;;;;;4853379;29;20037;-84
2022/01/18 08:16:49;;;;;;;35.92;17.27;;;;;;;;;;4852876;29;20054;-84
2022/01/18 08:19:17;;;;;;;39.35;17.38;;;;;;;;;;4854755;29;20518;-84
2022/01/18 08:21:44;;;;;;;39.78;19.13;;;;;;;;;;4854485;29;20054;-84
2022/01/18 08:24:12;;;;;;;38.72;18.08;;;;;;;;;;4836519;29;20533;-83
2022/01/18 08:26:39;;;;;;;34.47;17.27;;;;;;;;;;4853880;29;20053;-84
2022/01/18 08:29:05;;;;;;;39.95;18.52;;;;;;;;;;4853846;29;20109;-81
2022/01/18 08:31:32;;;;;;;44.35;20.00;;;;;;;;;;4855060;29;20049;-84
2022/01/18 08:33:59;;;;;;;44.80;20.75;;;;;;;;;;4856424;29;20490;-83
2022/01/18 08:36:26;;;;;;;48.28;20.92;;;;;;;;;;4853306;29;20046;-84
2022/01/18 08:38:53;;;;;;;46.83;20.65;;;;;;;;;;4853974;29;20106;-84
2022/01/18 08:41:20;;;;;;;49.75;21.80;;;;;;;;;;4852969;29;20045;-83
2022/01/18 08:43:48;;;;;;;46.45;20.55;;;;;;;;;;4853906;29;20050;-84
2022/01/18 08:46:16;;;;;;;38.88;18.98;;;;;;;;;;4855482;29;20045;-83
2022/01/18 08:48:43;;;;;;;43.80;20.53;;;;;;;;;;4854292;29;20321;-82
2022/01/18 08:51:10;;;;;;;42.90;19.60;;;;;;;;;;4852662;29;20114;-81
2022/01/18 08:53:37;;;;;;;43.53;20.70;;;;;;;;;;4853314;29;20049;-81
2022/01/18 08:56:05;;;;;;;46.10;20.37;;;;;;;;;;4853006;29;20074;-80
2022/01/18 08:58:34;;;;;;;42.90;20.00;;;;;;;;;;4837547;29;20061;-82
2022/01/18 09:01:02;;;;;;;40.78;20.23;;;;;;;;;;4856110;29;20141;-81
2022/01/18 09:03:30;;;;;;;47.65;21.67;;;;;;;;;;4852413;29;20088;-82
2022/01/18 09:05:57;;;;;;;50.50;21.73;;;;;;;;;;4853007;29;20132;-82
2022/01/18 09:08:24;;;;;;;44.90;21.55;;;;;;;;;;4853705;29;20053;-82
2022/01/18 09:10:52;;;;;;;45.50;21.42;;;;;;;;;;4853034;29;20046;-81
2022/01/18 09:13:22;;;;;;;48.53;21.60;;;;;;;;;;4854920;29;20093;-82
2022/01/18 09:15:50;;;;;;;43.70;20.65;;;;;;;;;;4854610;29;20065;-82
2022/01/18 09:18:17;;;;;;;44.83;22.00;;;;;;;;;;4852097;29;20132;-82
2022/01/18 09:20:44;;;;;;;38.75;19.63;;;;;;;;;;4852852;29;20056;-82
2022/01/18 09:23:12;;;;;;;44.00;21.27;;;;;;;;;;4852544;29;20068;-82
2022/01/18 09:25:39;;;;;;;46.43;22.27;;;;;;;;;;4853214;29;20046;-82
2022/01/18 09:28:06;;;;;;;43.63;21.38;;;;;;;;;;4854508;29;20080;-81
2022/01/18 09:30:35;;;;;;;49.88;23.48;;;;;;;;;;4853314;29;20061;-82
2022/01/18 09:33:05;;;;;;;43.40;21.80;;;;;;;;;;4852361;29;20052;-82
2022/01/18 09:35:37;;;;;;;45.33;22.33;;;;;;;;;;4852163;29;20400;-83
2022/01/18 09:38:05;;;;;;;50.03;22.90;;;;;;;;;;4852843;29;20053;-82
2022/01/18 09:40:37;;;;;;;50.28;24.15;;;;;;;;;;4853133;29;20056;-81
2022/01/18 09:43:09;;;;;;;51.42;24.50;;;;;;;;;;4852718;29;20058;-82
2022/01/18 09:45:36;;;;;;;48.75;23.10;;;;;;;;;;4853031;29;20049;-82
2022/01/18 09:48:03;;;;;;;51.80;23.60;;;;;;;;;;4852025;29;20050;-81
2022/01/18 09:50:34;;;;;;;48.40;23.38;;;;;;;;;;4852293;29;20049;-81
2022/01/18 09:53:02;;;;;;;49.90;24.15;;;;;;;;;;4852924;29;20046;-82
2022/01/18 09:55:31;;;;;;;45.60;23.80;;;;;;;;;;4853170;29;20054;-82
2022/01/18 09:57:59;;;;;;;47.08;23.50;;;;;;;;;;4854792;29;20056;-82
2022/01/18 10:00:29;;;;;;;47.53;23.00;;;;;;;;;;4847998;29;20139;-82
2022/01/18 10:02:56;;;;;;;43.92;23.15;;;;;;;;;;4843582;29;20226;-83
2022/01/18 10:05:29;;;;;;;45.85;23.02;;;;;;;;;;4860228;29;20487;-84
2022/01/18 10:08:02;;;;;;;47.13;23.40;;;;;;;;;;4852112;29;20518;-82
2022/01/18 10:10:46;;;;;;;43.70;23.25;;;;;;;;;;4852888;29;20053;-82
2022/01/18 10:13:25;;;;;;;41.55;22.13;;;;;;;;;;4851107;29;20056;-83
2022/01/18 10:16:08;;;;;;;44.65;22.38;;;;;;;;;;4839609;29;20613;-82
2022/01/18 10:18:48;;;;;;;37.45;20.90;;;;;;;;;;4852954;29;20041;-82
2022/01/18 10:21:29;;;;;;;39.05;21.55;;;;;;;;;;4851973;29;20109;-81
2022/01/18 10:24:22;;;;;;;37.15;21.73;;;;;;;;;;4852239;29;20053;-82
2022/01/18 10:26:50;;;;;;;37.00;21.33;;;;;;;;;;4851698;29;20054;-82
2022/01/18 10:29:22;;;;;;;45.95;22.80;;;;;;;;;;4852007;29;20045;-83
2022/01/18 10:34:42;;;;;;;41.88;21.90;;;;;;;;;;4853352;29;20050;-83
2022/01/18 10:37:12;;;;;;;36.88;20.98;;;;;;;;;;4851598;29;20581;-81
2022/01/18 10:39:49;;;;;;;40.92;22.38;;;;;;;;;;4854866;29;20515;-83
2022/01/18 10:42:39;;;;;;;37.90;21.23;;;;;;;;;;4854539;29;20056;-83
2022/01/18 10:45:09;;;;;;;39.13;21.20;;;;;;;;;;4855105;29;20073;-82
2022/01/18 10:47:37;;;;;;;38.38;20.83;;;;;;;;;;4859409;29;20368;-82
2022/01/18 10:50:12;;;;;;;35.90;19.65;;;;;;;;;;4855434;29;20062;-82
2022/01/18 10:52:41;;;;;;;33.53;19.10;;;;;;;;;;4841068;29;20045;-83
2022/01/18 10:55:15;;;;;;;34.08;19.38;;;;;;;;;;4857936;29;20049;-83
2022/01/18 10:57:42;;;;;;;33.08;18.75;;;;;;;;;;4855998;29;20140;-83
2022/01/18 11:00:11;;;;;;;31.42;18.02;;;;;;;;;;4854201;29;20126;-82
2022/01/18 11:02:39;;;;;;;;;;;;;;;;;;4857881;29;20129;-81
2022/01/18 11:05:18;;;;;;;30.60;16.38;;;;;;;;;;4854776;29;20006;-81
2022/01/18 11:07:47;;;;;;;30.67;17.13;;;;;;;;;;4843612;29;20097;-82
2022/01/18 11:10:16;;;;;;;40.13;23.98;;;;;;;;;;4853868;29;20475;-81
2022/01/18 11:12:51;;;;;;;38.92;23.95;;;;;;;;;;4860770;29;20068;-81
2022/01/18 11:15:21;;;;;;;38.92;25.10;;;;;;;;;;4854842;29;20049;-81
2022/01/18 11:17:52;;;;;;;44.75;27.65;;;;;;;;;;4854808;29;20101;-80
2022/01/18 11:20:20;;;;;;;32.35;21.15;;;;;;;;;;4855681;29;20472;-80
2022/01/18 11:22:49;;;;;;;27.05;17.45;;;;;;;;;;4855086;29;20519;-81
2022/01/18 11:25:17;;;;;;;26.58;16.52;;;;;;;;;;4856004;29;20049;-81
2022/01/18 11:27:48;;;;;;;98.65;78.10;;;;;;;;;;4858438;29;20045;-80
2022/01/18 11:30:18;;;;;;;28.17;19.08;;;;;;;;;;4856330;29;20083;-81
2022/01/18 11:32:45;;;;;;;34.83;21.95;;;;;;;;;;4854621;29;20061;-81
2022/01/18 11:35:19;;;;;;;29.35;18.90;;;;;;;;;;4854117;29;20053;-82
2022/01/18 11:38:22;;;;;;;25.98;17.63;;;;;;;;;;4854858;29;20176;-82
2022/01/18 11:40:51;;;;;;;29.75;16.60;;;;;;;;;;4841558;29;20526;-82
2022/01/18 11:43:38;;;;;;;27.17;16.15;;;;;;;;;;4855968;29;20084;-81
2022/01/18 11:46:32;;;;;;;26.42;14.90;;;;;;;;;;4855768;29;20562;-81
2022/01/18 11:49:14;;;;;;;26.10;15.75;;;;;;;;;;4854862;29;20045;-82
2022/01/18 11:51:48;;;;;;;26.27;16.67;;;;;;;;;;4865407;29;20429;-82
2022/01/18 11:54:26;;;;;;;22.95;16.30;;;;;;;;;;4855743;29;20138;-82
2022/01/18 11:56:53;;;;;;;28.33;16.17;;;;;;;;;;4853749;29;20049;-82
2022/01/18 11:59:24;;;;;;;24.55;15.77;;;;;;;;;;4837545;29;20405;-83
2022/01/18 12:01:54;;;;;;;25.10;16.00;;;;;;;;;;4852961;29;20718;-82
2022/01/18 12:04:46;;;;;;;22.48;15.85;;;;;;;;;;4852116;29;20106;-82
2022/01/18 12:07:38;;;;;;;32.67;24.52;;;;;;;;;;4842160;29;20057;-82
2022/01/18 12:10:08;;;;;;;27.45;19.90;;;;;;;;;;4853041;29;20057;-81
2022/01/18 12:12:45;;;;;;;25.88;16.70;;;;;;;;;;4852902;29;20085;-82
2022/01/18 12:15:24;;;;;;;22.02;15.65;;;;;;;;;;4852185;29;20053;-82
2022/01/18 12:18:02;;;;;;;25.30;16.73;;;;;;;;;;4853116;29;20638;-83
2022/01/18 12:20:32;;;;;;;24.95;16.05;;;;;;;;;;4846748;29;20141;-82
2022/01/18 12:23:07;;;;;;;27.08;17.25;;;;;;;;;;4852679;29;20094;-81
2022/01/18 12:25:37;;;;;;;24.98;17.25;;;;;;;;;;4835262;29;20879;-81
2022/01/18 12:34:36;;;;;;;22.55;15.57;;;;;;;;;;4852484;29;20054;-82
2022/01/18 12:37:05;;;;;;;37.50;29.98;;;;;;;;;;4852882;29;20481;-82
2022/01/18 12:39:51;;;;;;;21.45;16.65;;;;;;;;;;4844507;29;20476;-81
2022/01/18 12:44:20;;;;;;;22.95;15.48;;;;;;;;;;4834400;29;20055;-83
2022/01/18 12:45:09;;;;;;;26.10;18.10;;;;;;;;;;4844017;29;20045;-82
2022/01/18 12:47:41;;;;;;;30.40;17.40;;;;;;;;;;4844999;29;20049;-82
2022/01/18 12:50:11;;;;;;;23.27;16.80;;;;;;;;;;4827026;29;20391;-81
2022/01/18 12:53:01;;;;;;;25.55;16.90;;;;;;;;;;4846078;29;20077;-82
2022/01/18 12:55:38;;;;;;;22.65;15.63;;;;;;;;;;4844098;29;20049;-81
2022/01/18 12:58:15;;;;;;;26.23;16.38;;;;;;;;;;4841185;29;20644;-82
2022/01/18 13:00:48;;;;;;;31.45;17.08;;;;;;;;;;4830038;29;20476;-83
2022/01/18 13:03:33;;;;;;;28.63;17.45;;;;;;;;;;4840921;29;20074;-83
2022/01/18 13:06:09;;;;;;;27.50;17.08;;;;;;;;;;4844783;29;20102;-82
2022/01/18 13:08:47;;;;;;;25.33;16.05;;;;;;;;;;4856088;29;20045;-81
2022/01/18 13:11:20;;;;;;;26.05;17.02;;;;;;;;;;4851085;29;20056;-81
2022/01/18 13:14:01;;;;;;;24.08;16.00;;;;;;;;;;4843580;29;20059;-82
2022/01/18 13:27:16;;;;;;;25.42;16.23;;;;;;;;;;4869386;29;20076;-82
2022/01/18 13:29:44;;;;;;;33.80;19.85;;;;;;;;;;4861792;29;20101;-82
2022/01/18 13:32:19;;;;;;;25.13;17.05;;;;;;;;;;4852867;29;20132;-81
2022/01/18 13:34:54;;;;;;;27.73;17.65;;;;;;;;;;4860062;29;20053;-82
2022/01/18 13:37:26;;;;;;;27.42;17.38;;;;;;;;;;4868959;29;20356;-83
2022/01/18 13:39:58;;;;;;;28.15;18.02;;;;;;;;;;4850897;29;20052;-82
2022/01/18 13:42:35;;;;;;;21.77;15.60;;;;;;;;;;4836290;29;20059;-81
2022/01/18 13:45:12;;;;;;;26.33;17.42;;;;;;;;;;4844077;29;20136;-80
2022/01/18 13:47:53;;;;;;;25.92;16.60;;;;;;;;;;4845518;29;20632;-80
2022/01/18 13:50:44;;;;;;;24.73;16.63;;;;;;;;;;4858950;29;20418;-80
2022/01/18 13:53:12;;;;;;;26.50;18.50;;;;;;;;;;4864098;29;20049;-81
2022/01/18 13:55:45;;;;;;;32.80;24.02;;;;;;;;;;4846219;29;20046;-80
2022/01/18 13:58:22;;;;;;;26.25;18.70;;;;;;;;;;4850978;29;20045;-80
2022/01/18 14:00:49;;;;;;;25.50;16.60;;;;;;;;;;4854949;29;20049;-82
2022/01/18 14:03:31;;;;;;;28.05;19.83;;;;;;;;;;4861809;29;20412;-82
2022/01/18 14:05:58;;;;;;;32.65;21.17;;;;;;;;;;4858451;29;20041;-82
2022/01/18 14:08:38;;;;;;;26.25;18.30;;;;;;;;;;4851115;29;20078;-82
2022/01/18 14:11:07;;;;;;;26.70;17.15;;;;;;;;;;4851470;29;20057;-80
2022/01/18 14:13:37;;;;;;;31.58;19.35;;;;;;;;;;4858205;29;20552;-82
2022/01/18 14:16:25;;;;;;;42.47;34.28;;;;;;;;;;4866235;29;20125;-81
2022/01/18 14:18:54;;;;;;;29.05;17.67;;;;;;;;;;4859685;29;20053;-81
2022/01/18 14:21:43;;;;;;;32.55;24.50;;;;;;;;;;4858754;29;20053;-81
2022/01/18 14:24:14;;;;;;;25.73;18.27;;;;;;;;;;4843793;29;20121;-81
2022/01/18 14:26:53;;;;;;;25.88;16.95;;;;;;;;;;4866214;29;20054;-81
2022/01/18 14:29:22;;;;;;;29.83;21.65;;;;;;;;;;4859659;29;20049;-82
2022/01/18 14:32:17;;;;;;;;;;;;;;;;;;4856206;29;20050;-82
2022/01/18 14:34:49;;;;;;;26.38;20.27;;;;;;;;;;4829356;29;19925;-81
2022/01/18 14:37:17;;;;;;;26.45;17.48;;;;;;;;;;4857064;29;20053;-82
2022/01/18 14:40:01;;;;;;;25.05;17.38;;;;;;;;;;4856320;29;20053;-82
2022/01/18 14:42:55;;;;;;;24.40;15.88;;;;;;;;;;4855073;29;20057;-82
2022/01/18 14:45:32;;;;;;;28.02;18.05;;;;;;;;;;4855459;29;20050;-82
2022/01/18 14:48:04;;;;;;;28.35;19.20;;;;;;;;;;4855284;29;20045;-83
2022/01/18 14:50:31;;;;;;;24.45;17.45;;;;;;;;;;4854505;29;20050;-82
2022/01/18 14:52:57;;;;;;;29.33;22.75;;;;;;;;;;4855418;29;20087;-82
2022/01/18 14:55:26;;;;;;;27.65;18.67;;;;;;;;;;4856749;29;20105;-81
2022/01/18 14:57:54;;;;;;;27.55;17.60;;;;;;;;;;4856913;29;20053;-82
2022/01/18 15:00:22;;;;;;;29.97;17.07;;;;;;;;;;4854122;29;20102;-82
2022/01/18 15:02:48;;;;;;;24.83;17.83;;;;;;;;;;4838967;29;20378;-82
2022/01/18 15:05:16;;;;;;;26.98;17.98;;;;;;;;;;4833275;29;20045;-82
2022/01/18 15:07:44;;;;;;;24.58;17.13;;;;;;;;;;4840901;29;20404;-82
2022/01/18 15:10:12;;;;;;;29.85;17.40;;;;;;;;;;4856671;29;20064;-82
2022/01/18 15:12:41;;;;;;;26.13;16.10;;;;;;;;;;4855986;29;20053;-81
2022/01/18 15:15:09;;;;;;;27.27;16.17;;;;;;;;;;4854729;29;20053;-81
2022/01/18 15:17:36;;;;;;;29.35;17.52;;;;;;;;;;4853552;29;20086;-80
2022/01/18 15:20:04;;;;;;;45.25;26.17;;;;;;;;;;4839537;29;20042;-81
2022/01/18 15:22:31;;;;;;;28.25;18.63;;;;;;;;;;4855652;29;20102;-82
2022/01/18 15:24:58;;;;;;;38.88;22.40;;;;;;;;;;4840289;29;20113;-83
2022/01/18 15:27:25;;;;;;;64.95;31.85;;;;;;;;;;4853069;29;20054;-82
2022/01/18 15:29:52;;;;;;;47.40;26.33;;;;;;;;;;4837783;29;20079;-82
2022/01/18 15:32:19;;;;;;;39.03;22.65;;;;;;;;;;4855042;29;20046;-83
2022/01/18 15:34:46;;;;;;;42.22;28.75;;;;;;;;;;4839594;29;20049;-84
2022/01/18 15:37:16;;;;;;;24.52;17.08;;;;;;;;;;4861552;29;20106;-84
2022/01/18 15:39:47;;;;;;;31.85;21.30;;;;;;;;;;4865520;29;20057;-82
2022/01/18 15:42:15;;;;;;;23.52;15.98;;;;;;;;;;4854530;29;20050;-83
2022/01/18 15:44:42;;;;;;;29.98;19.70;;;;;;;;;;4859148;29;20529;-83
2022/01/18 15:47:12;;;;;;;22.30;16.83;;;;;;;;;;4863862;29;20045;-83
2022/01/18 15:49:40;;;;;;;26.80;17.13;;;;;;;;;;4866991;29;20098;-81
2022/01/18 15:52:08;;;;;;;26.02;16.25;;;;;;;;;;4852028;29;20125;-82
2022/01/18 15:54:35;;;;;;;24.40;16.23;;;;;;;;;;4864875;29;20053;-80
2022/01/18 15:57:07;;;;;;;28.75;16.77;;;;;;;;;;4860563;29;20045;-81
2022/01/18 15:59:38;;;;;;;24.75;15.90;;;;;;;;;;4848720;29;20048;-80
2022/01/18 16:02:05;;;;;;;26.63;16.92;;;;;;;;;;4851594;29;20098;-81
2022/01/18 16:04:33;;;;;;;26.07;16.37;;;;;;;;;;4854528;29;20059;-81
2022/01/18 16:07:00;;;;;;;26.35;17.52;;;;;;;;;;4839211;29;20103;-81
2022/01/18 16:09:27;;;;;;;26.52;18.13;;;;;;;;;;4854299;29;20069;-80
2022/01/18 16:11:54;;;;;;;23.60;16.30;;;;;;;;;;4855155;29;20135;-82
2022/01/18 16:14:21;;;;;;;29.33;17.45;;;;;;;;;;4854762;29;20041;-82
2022/01/18 16:16:49;;;;;;;28.27;17.33;;;;;;;;;;4852789;29;20113;-81
2022/01/18 16:19:16;;;;;;;29.10;18.77;;;;;;;;;;4854176;29;20546;-84
2022/01/18 16:21:43;;;;;;;28.17;17.38;;;;;;;;;;4855910;29;20122;-82
2022/01/18 16:24:11;;;;;;;27.38;19.23;;;;;;;;;;4852747;29;20061;-83
2022/01/18 16:26:37;;;;;;;24.90;17.00;;;;;;;;;;4853562;29;20460;-82
2022/01/18 16:29:05;;;;;;;27.88;18.10;;;;;;;;;;4854004;29;20050;-83
2022/01/18 16:31:35;;;;;;;28.30;18.37;;;;;;;;;;4854387;29;20111;-83
2022/01/18 16:34:03;;;;;;;30.70;18.05;;;;;;;;;;4855689;29;20061;-82
2022/01/18 16:36:30;;;;;;;33.13;21.45;;;;;;;;;;4854077;29;20096;-83
2022/01/18 16:38:57;;;;;;;56.92;30.00;;;;;;;;;;4837525;29;20113;-83
2022/01/18 16:41:25;;;;;;;75.10;35.33;;;;;;;;;;4854125;29;20084;-83
2022/01/18 16:43:51;;;;;;;52.38;27.83;;;;;;;;;;4851377;29;20527;-83
2022/01/18 16:46:21;;;;;;;43.85;25.05;;;;;;;;;;4838758;29;20093;-83
2022/01/18 16:48:48;;;;;;;50.95;27.10;;;;;;;;;;4838637;29;20133;-82
2022/01/18 16:51:15;;;;;;;51.30;28.55;;;;;;;;;;4851912;29;20471;-83
2022/01/18 16:53:41;;;;;;;31.67;19.40;;;;;;;;;;4851586;29;20097;-82
2022/01/18 16:56:08;;;;;;;36.60;22.75;;;;;;;;;;4853917;29;20057;-83
2022/01/18 16:58:37;;;;;;;37.17;21.88;;;;;;;;;;4857439;29;20530;-83
2022/01/18 17:01:05;;;;;;;40.92;22.45;;;;;;;;;;4854769;29;20117;-83
2022/01/18 17:03:31;;;;;;;33.08;20.00;;;;;;;;;;4852510;29;20057;-83
2022/01/18 17:05:58;;;;;;;36.35;20.15;;;;;;;;;;4852296;29;20101;-84
2022/01/18 17:08:25;;;;;;;34.30;20.63;;;;;;;;;;4843437;29;20518;-83
2022/01/18 17:10:52;;;;;;;32.55;19.88;;;;;;;;;;4852310;29;20107;-83
2022/01/18 17:13:18;;;;;;;35.03;21.33;;;;;;;;;;4853882;29;20105;-83
2022/01/18 17:15:46;;;;;;;32.50;19.85;;;;;;;;;;4853023;29;20114;-83
2022/01/18 17:18:13;;;;;;;37.05;20.52;;;;;;;;;;4852409;29;20057;-82
2022/01/18 17:20:40;;;;;;;42.03;21.83;;;;;;;;;;4835774;29;20041;-83
2022/01/18 17:23:06;;;;;;;36.25;21.83;;;;;;;;;;4851702;29;20106;-83
2022/01/18 17:25:34;;;;;;;34.03;21.33;;;;;;;;;;4853314;29;20052;-83
2022/01/18 17:28:03;;;;;;;41.73;21.77;;;;;;;;;;4855902;29;20053;-84
2022/01/18 17:30:29;;;;;;;41.13;23.60;;;;;;;;;;4850671;29;20102;-83
2022/01/18 17:32:56;;;;;;;49.92;28.23;;;;;;;;;;4836999;29;20107;-82
2022/01/18 17:35:23;;;;;;;42.17;22.42;;;;;;;;;;4855703;29;20047;-84
2022/01/18 17:37:50;;;;;;;36.15;21.02;;;;;;;;;;4852958;29;20049;-83
2022/01/18 17:40:16;;;;;;;47.67;23.77;;;;;;;;;;4841475;29;20471;-84
2022/01/18 17:42:49;;;;;;;73.68;42.75;;;;;;;;;;4864083;29;20110;-84
2022/01/18 17:45:17;;;;;;;148.68;82.45;;;;;;;;;;4853717;29;20049;-81
2022/01/18 17:47:44;;;;;;;68.43;38.20;;;;;;;;;;4863543;29;20053;-85
2022/01/18 17:50:11;;;;;;;45.13;23.05;;;;;;;;;;4842322;29;20388;-87
2022/01/18 17:52:37;;;;;;;41.63;22.27;;;;;;;;;;4862612;29;20061;-86
2022/01/18 17:55:05;;;;;;;36.78;22.27;;;;;;;;;;4861915;29;20455;-86
2022/01/18 17:57:32;;;;;;;36.58;22.52;;;;;;;;;;4845381;29;20057;-85
2022/01/18 17:59:59;;;;;;;42.80;23.60;;;;;;;;;;4863573;29;20703;-86
2022/01/18 18:02:25;;;;;;;42.53;23.52;;;;;;;;;;4863441;29;20041;-88
2022/01/18 18:04:52;;;;;;;41.00;23.65;;;;;;;;;;4844637;29;20120;-87
2022/01/18 18:07:19;;;;;;;40.63;23.63;;;;;;;;;;4849268;29;20037;-86
2022/01/18 18:09:46;;;;;;;41.80;24.50;;;;;;;;;;4863990;29;20057;-86
2022/01/18 18:12:13;;;;;;;40.03;24.00;;;;;;;;;;4863671;29;20467;-86
2022/01/18 18:14:40;;;;;;;39.53;24.30;;;;;;;;;;4864836;29;20049;-86
2022/01/18 18:17:07;;;;;;;40.53;23.67;;;;;;;;;;4863959;29;20050;-85
2022/01/18 18:19:34;;;;;;;41.13;24.35;;;;;;;;;;4863239;29;20094;-85
2022/01/18 18:22:01;;;;;;;43.40;24.63;;;;;;;;;;4865673;29;20105;-84
2022/01/18 18:24:27;;;;;;;46.67;25.92;;;;;;;;;;4838125;29;20049;-85
2022/01/18 18:26:54;;;;;;;46.60;24.88;;;;;;;;;;4856997;29;20049;-85
2022/01/18 18:29:21;;;;;;;45.85;25.70;;;;;;;;;;4854363;29;20049;-85
2022/01/18 18:31:47;;;;;;;48.67;26.80;;;;;;;;;;4857975;29;20062;-85
2022/01/18 18:34:14;;;;;;;43.50;26.13;;;;;;;;;;4846431;29;20468;-85
2022/01/18 18:36:41;;;;;;;46.92;26.58;;;;;;;;;;4858329;29;20584;-85
2022/01/18 18:39:23;;;;;;;46.38;26.80;;;;;;;;;;4859725;29;20111;-85
2022/01/18 18:42:50;;;;;;;49.50;27.73;;;;;;;;;;4858693;29;20049;-86
2022/01/18 18:44:40;;;;;;;50.33;26.48;;;;;;;;;;4849823;29;20141;-86
2022/01/18 18:47:08;;;;;;;46.85;27.33;;;;;;;;;;4859291;29;20061;-85
2022/01/18 18:49:35;;;;;;;48.72;26.65;;;;;;;;;;4857047;29;20041;-85
2022/01/18 18:52:04;;;;;;;55.72;31.60;;;;;;;;;;4862977;29;20053;-85
2022/01/18 18:54:31;;;;;;;;;;;;;;;;;;4857071;29;20053;-88
2022/01/18 18:56:59;;;;;;;51.60;27.85;;;;;;;;;;4856643;29;19980;-84
2022/01/18 18:59:54;;;;;;;49.45;25.95;;;;;;;;;;4861742;29;20091;-84
2022/01/18 19:02:26;;;;;;;50.47;24.33;;;;;;;;;;4847806;29;20096;-85
2022/01/18 19:04:52;;;;;;;54.08;29.95;;;;;;;;;;4849038;29;20051;-84
2022/01/18 19:07:22;;;;;;;49.75;26.15;;;;;;;;;;4853484;29;20049;-82
2022/01/18 19:09:48;;;;;;;60.65;32.30;;;;;;;;;;4848371;29;20057;-84
2022/01/18 19:12:17;;;;;;;52.30;27.52;;;;;;;;;;4854907;29;20060;-83
2022/01/18 19:14:45;;;;;;;85.45;41.72;;;;;;;;;;4855338;29;20121;-84
2022/01/18 19:17:12;;;;;;;185.05;84.05;;;;;;;;;;4851894;29;20716;-84
2022/01/18 19:19:39;;;;;;;50.78;29.42;;;;;;;;;;4848167;29;20053;-84
2022/01/18 19:22:05;;;;;;;54.45;29.65;;;;;;;;;;4857261;29;20058;-86
2022/01/18 19:24:33;;;;;;;53.55;26.92;;;;;;;;;;4839961;29;20506;-85
2022/01/18 19:26:59;;;;;;;57.35;31.20;;;;;;;;;;4834862;29;20126;-85
2022/01/18 19:29:26;;;;;;;61.67;31.90;;;;;;;;;;4827200;29;20514;-85
2022/01/18 19:31:53;;;;;;;91.93;43.72;;;;;;;;;;4850156;29;20460;-85
2022/01/18 19:34:21;;;;;;;51.25;28.60;;;;;;;;;;4857284;29;20072;-85
2022/01/18 19:36:51;;;;;;;61.13;31.30;;;;;;;;;;4856975;29;20571;-84
2022/01/18 19:39:18;;;;;;;56.65;27.90;;;;;;;;;;4847290;29;20042;-84
2022/01/18 19:41:50;;;;;;;50.50;26.45;;;;;;;;;;4856716;29;20048;-86
2022/01/18 19:44:18;;;;;;;57.80;28.55;;;;;;;;;;4854571;29;20122;-86
2022/01/18 19:46:45;;;;;;;47.10;26.50;;;;;;;;;;4854586;29;20122;-84
2022/01/18 19:49:12;;;;;;;59.90;28.65;;;;;;;;;;4846659;29;20053;-82
2022/01/18 19:51:39;;;;;;;47.95;25.63;;;;;;;;;;4841070;29;20061;-80
2022/01/18 19:54:07;;;;;;;51.17;26.15;;;;;;;;;;4845299;29;20061;-84
2022/01/18 19:56:36;;;;;;;48.30;25.95;;;;;;;;;;4827558;29;22004;-84
2022/01/18 19:59:03;;;;;;;48.55;25.92;;;;;;;;;;4844921;29;20102;-83
2022/01/18 20:01:30;;;;;;;57.58;26.48;;;;;;;;;;4834613;29;20049;-88
2022/01/18 20:03:58;;;;;;;74.32;37.90;;;;;;;;;;4851370;29;20133;-85
2022/01/18 20:06:25;;;;;;;48.03;25.30;;;;;;;;;;4850865;29;20049;-86
2022/01/18 20:08:54;;;;;;;65.50;32.83;;;;;;;;;;4854680;29;20105;-86
2022/01/18 20:11:21;;;;;;;51.72;29.00;;;;;;;;;;4851818;29;20049;-88
2022/01/18 20:13:53;;;;;;;51.67;27.93;;;;;;;;;;4849823;29;20054;-87
2022/01/18 20:16:21;;;;;;;83.18;42.17;;;;;;;;;;4852416;29;20053;-87
2022/01/18 20:18:49;;;;;;;106.47;53.72;;;;;;;;;;4839475;29;20110;-86
2022/01/18 20:21:17;;;;;;;56.10;29.45;;;;;;;;;;4840008;29;20057;-88
2022/01/18 20:23:50;;;;;;;69.40;37.13;;;;;;;;;;4860518;29;20080;-89
2022/01/18 20:26:22;;;;;;;60.60;30.50;;;;;;;;;;4857986;29;20137;-89
2022/01/18 20:28:57;;;;;;;51.67;26.83;;;;;;;;;;4861679;29;20469;-88
2022/01/18 20:31:25;;;;;;;50.28;26.85;;;;;;;;;;4856108;29;20061;-89
2022/01/18 20:33:55;;;;;;;50.70;29.63;;;;;;;;;;4859068;29;20054;-88
2022/01/18 20:36:22;;;;;;;52.67;29.25;;;;;;;;;;4853250;29;20113;-89
2022/01/18 20:38:50;;;;;;;68.10;40.28;;;;;;;;;;4851068;29;20594;-88
2022/01/18 20:41:23;;;;;;;53.53;31.53;;;;;;;;;;4850049;29;20582;-88
2022/01/18 20:43:51;;;;;;;53.25;28.90;;;;;;;;;;4846960;29;20298;-88
2022/01/18 20:46:19;;;;;;;50.85;27.35;;;;;;;;;;4837282;29;20046;-87
2022/01/18 20:48:46;;;;;;;50.30;27.40;;;;;;;;;;4856211;29;20053;-89
2022/01/18 20:51:14;;;;;;;91.05;54.10;;;;;;;;;;4849723;29;20483;-88
2022/01/18 20:53:43;;;;;;;67.05;34.75;;;;;;;;;;4835258;29;20483;-88
2022/01/18 20:56:10;;;;;;;67.45;35.65;;;;;;;;;;4851332;29;20121;-88
2022/01/18 20:58:38;;;;;;;55.95;31.48;;;;;;;;;;4836860;29;20460;-85
2022/01/18 21:01:14;;;;;;;81.72;46.38;;;;;;;;;;4847386;29;20113;-88
2022/01/18 21:03:41;;;;;;;65.75;34.63;;;;;;;;;;4833047;29;20092;-86
2022/01/18 21:06:08;;;;;;;64.40;32.80;;;;;;;;;;4853060;29;20052;-85
2022/01/18 21:08:35;;;;;;;172.05;94.35;;;;;;;;;;4846650;29;20062;-85
2022/01/18 21:11:05;;;;;;;68.82;35.53;;;;;;;;;;4857794;29;20046;-86
2022/01/18 21:13:32;;;;;;;64.18;34.97;;;;;;;;;;4855363;29;20057;-87
2022/01/18 21:16:00;;;;;;;63.45;33.38;;;;;;;;;;4859509;29;20769;-84
2022/01/18 21:18:27;;;;;;;59.72;31.30;;;;;;;;;;4860787;29;20109;-86
2022/01/18 21:20:55;;;;;;;62.17;33.20;;;;;;;;;;4856623;29;20101;-86
2022/01/18 21:23:22;;;;;;;62.20;33.70;;;;;;;;;;4856232;29;20073;-84
2022/01/18 21:25:50;;;;;;;58.47;31.30;;;;;;;;;;4856849;29;20042;-87
2022/01/18 21:28:17;;;;;;;61.95;33.38;;;;;;;;;;4858549;29;20064;-86
2022/01/18 21:30:44;;;;;;;62.35;32.60;;;;;;;;;;4858178;29;20538;-88
2022/01/18 21:33:13;;;;;;;67.82;35.55;;;;;;;;;;4857679;29;20049;-89
2022/01/18 21:35:40;;;;;;;55.60;30.23;;;;;;;;;;4851024;29;20114;-89
2022/01/18 21:38:06;;;;;;;55.25;30.02;;;;;;;;;;4845212;29;20053;-89
2022/01/18 21:40:34;;;;;;;60.25;30.17;;;;;;;;;;4856705;29;20049;-89
2022/01/18 21:43:01;;;;;;;57.13;30.77;;;;;;;;;;4854000;29;20129;-88
2022/01/18 21:45:28;;;;;;;54.50;29.50;;;;;;;;;;4859361;29;20049;-90
2022/01/18 21:47:55;;;;;;;55.90;29.50;;;;;;;;;;4836700;29;20049;-87
2022/01/18 21:50:22;;;;;;;55.92;29.63;;;;;;;;;;4854663;29;20053;-88
2022/01/18 21:52:49;;;;;;;55.17;29.55;;;;;;;;;;4856020;29;20114;-86
2022/01/18 21:55:16;;;;;;;60.47;31.35;;;;;;;;;;4838985;29;20049;-86